Skip Navigation LinksHome page > Weather > Current weather Skip Navigation Links

Current Weather

Jakutsk, Russia

For information only: do not use for flight planning or navigation.
Latest weather
Observation time Monday, November 24, 2014 4:30 PM JST
Local time Monday, November 24, 2014 4:48 PM JST
Flight conditions Visual Meteorological Conditions
Winds
Wind direction North (350°)
Wind speed 4 mph
Visibility 6.2 mi.
Sky condition
Ceiling unlimited
Sky clear
Temperature -22°F
Dewpoint -27°F
Altimeter 29.88 in.Hg
Precipitation
QF 4:30 AM
Derived measurements
Relative humidity 75%
Wind chill -35°F
Density altitude -5513 ft.
Remarks
Ceiling and visibility OK.
No significant changes expected in the next two hours.
METAR UEEE 240730Z 35002MPS CAVOK M30/M33 Q1012 NOSIG RMK QFE750 23490150

Settings

Location code

InnerDrive.Weather 4.0.5399.0 Release CLR 4.0.30319.34014
Copyright ©2014 Inner Drive Technology. All rights reserved. Portions Copyright ©1986-2014 David Braverman.

Find weather

Site navigation


Skip Navigation Links

Place info

Page info

PayPal - The safer, easier way to pay online!

Return home.

Copyright ©2014 Inner Drive Technology. Purveyors of fine, hand-crafted computer software. Page printed 2014-11-24T07:48:28 UTC.